Time;durP1;ratioP1;P1;durP2;ratioP2;P2;SDS_P1;SDS_P2;PMS_P1;PMS_P2;Temp;Humidity;BMP_temperature;BMP_pressure;BME280_temperature;BME280_humidity;BME280_pressure;Samples;Min_cycle;Max_cycle;Signal;HPM_P1;HPM_P2
2022/08/27 00:00:28;;;;;;;13.05;4.60;;;;;;;16.62;82.83;101664.97;5021959;28;20083;-68
2022/08/27 00:02:54;;;;;;;8.27;4.10;;;;;;;16.52;83.20;101667.56;5020892;28;20482;-68
2022/08/27 00:05:19;;;;;;;12.82;4.75;;;;;;;16.41;83.40;101668.50;5022295;28;20091;-67
2022/08/27 00:07:46;;;;;;;10.98;4.40;;;;;;;16.31;84.10;101666.38;5022088;28;20022;-69
2022/08/27 00:10:15;;;;;;;9.80;4.80;;;;;;;16.25;83.77;101662.66;5022196;28;20034;-69
2022/08/27 00:12:40;;;;;;;12.85;4.55;;;;;;;16.21;84.66;101671.72;5020629;28;20033;-69
2022/08/27 00:15:06;;;;;;;12.02;5.05;;;;;;;16.19;84.76;101660.91;5022275;28;20111;-68
2022/08/27 00:17:34;;;;;;;10.35;4.60;;;;;;;16.08;84.98;101659.88;5021265;28;20381;-68
2022/08/27 00:20:00;;;;;;;10.05;4.30;;;;;;;16.02;85.48;101660.84;5021800;28;20026;-69
2022/08/27 00:22:26;;;;;;;12.18;4.18;;;;;;;15.94;85.99;101654.88;5021994;28;20116;-68
2022/08/27 00:24:52;;;;;;;13.18;4.75;;;;;;;15.82;86.65;101647.44;5022355;28;20033;-68
2022/08/27 00:27:17;;;;;;;10.73;4.40;;;;;;;15.77;86.88;101652.88;5021795;28;20277;-68
2022/08/27 00:29:43;;;;;;;12.98;4.85;;;;;;;15.72;87.18;101651.94;5002534;28;20026;-67
2022/08/27 00:32:08;;;;;;;10.02;4.20;;;;;;;15.67;87.21;101654.59;5001224;28;20110;-68
2022/08/27 00:34:33;;;;;;;10.52;4.53;;;;;;;15.57;87.32;101660.72;5001545;28;20347;-68
2022/08/27 00:36:59;;;;;;;13.15;5.28;;;;;;;15.53;87.88;101654.81;5002417;28;20025;-68
2022/08/27 00:39:24;;;;;;;11.23;4.35;;;;;;;15.47;88.44;101655.81;5001931;28;20443;-67
2022/08/27 00:41:50;;;;;;;9.77;5.00;;;;;;;15.44;88.12;101658.22;5001963;28;20014;-68
2022/08/27 00:44:15;;;;;;;12.43;4.50;;;;;;;15.39;88.62;101652.56;5002371;28;20172;-68
2022/08/27 00:46:52;;;;;;;13.48;5.18;;;;;;;15.37;88.58;101651.97;5005054;28;20029;-67
2022/08/27 00:49:23;;;;;;;13.90;4.95;;;;;;;15.30;89.03;101655.69;5021525;28;20025;-68
2022/08/27 00:52:03;;;;;;;16.60;4.80;;;;;;;15.33;88.74;101657.16;5021779;28;20132;-68
2022/08/27 00:54:29;;;;;;;11.70;5.45;;;;;;;15.24;88.81;101655.84;5020583;28;20029;-68
2022/08/27 00:56:56;;;;;;;12.50;5.07;;;;;;;15.20;89.03;101652.69;5021485;28;20099;-68
2022/08/27 00:59:27;;;;;;;13.63;5.60;;;;;;;15.20;89.38;101660.16;5021036;28;20496;-67
2022/08/27 01:04:39;;;;;;;11.88;5.25;;;;;;;15.12;89.49;101661.38;5004444;28;20127;-68
2022/08/27 01:07:05;;;;;;;12.02;4.80;;;;;;;15.13;89.31;101657.53;5001316;28;20050;-68
2022/08/27 01:09:31;;;;;;;11.98;5.25;;;;;;;15.09;89.74;101652.72;5001827;28;20026;-68
2022/08/27 01:11:57;;;;;;;10.63;5.22;;;;;;;15.08;89.80;101653.81;5025062;22;20084;-69
2022/08/27 01:14:23;;;;;;;13.52;5.28;;;;;;;15.03;89.61;101649.81;5026419;28;20057;-68
2022/08/27 01:16:53;;;;;;;11.52;5.20;;;;;;;14.99;90.43;101653.31;5026117;28;20056;-68
2022/08/27 01:19:34;;;;;;;14.40;5.30;;;;;;;15.01;90.71;101651.16;5026761;28;20021;-69
2022/08/27 01:22:13;;;;;;;10.18;5.40;;;;;;;14.95;90.53;101655.75;5026139;28;20156;-69
2022/08/27 01:24:47;;;;;;;11.82;5.53;;;;;;;14.90;90.66;101646.44;5026427;28;20033;-68
2022/08/27 01:27:19;;;;;;;10.23;5.40;;;;;;;14.85;90.58;101649.09;5025986;28;20163;-69
2022/08/27 01:29:45;;;;;;;11.52;5.40;;;;;;;14.77;91.08;101651.16;5033189;28;20032;-69
2022/08/27 01:32:19;;;;;;;11.25;5.03;;;;;;;14.73;91.19;101649.09;5045355;28;20037;-68
2022/08/27 01:34:46;;;;;;;12.10;6.05;;;;;;;14.73;91.42;101649.94;5045603;28;20100;-69
2022/08/27 01:37:12;;;;;;;12.23;5.22;;;;;;;14.70;91.83;101650.44;5045653;28;20037;-69
2022/08/27 01:39:39;;;;;;;12.20;5.97;;;;;;;14.67;92.03;101650.06;5046279;28;20032;-69
2022/08/27 01:42:14;;;;;;;10.85;5.45;;;;;;;14.64;92.33;101645.00;5045398;28;20157;-69
2022/08/27 01:44:55;;;;;;;11.27;5.82;;;;;;;14.68;92.63;101640.66;5045511;28;20052;-70
2022/08/27 01:47:22;;;;;;;13.07;6.38;;;;;;;14.65;92.13;101642.00;5044601;28;20062;-68
2022/08/27 01:49:48;;;;;;;13.02;5.63;;;;;;;14.61;92.51;101640.78;5044119;28;20502;-69
2022/08/27 01:52:16;;;;;;;13.45;6.20;;;;;;;14.64;92.65;101645.00;5044460;28;20103;-69
2022/08/27 01:54:41;;;;;;;;;;;;;;;14.79;90.45;101643.44;5044708;28;20041;-69
2022/08/27 01:57:07;;;;;;;12.07;5.70;;;;;;;14.70;92.24;101649.56;5044424;28;20041;-69
2022/08/27 01:59:32;;;;;;;13.48;6.03;;;;;;;14.68;92.98;101637.91;5045033;28;20354;-68
2022/08/27 02:02:01;;;;;;;13.18;6.45;;;;;;;14.69;92.57;101636.81;5043166;28;20583;-69
2022/08/27 02:04:26;;;;;;;9.68;6.00;;;;;;;14.65;92.68;101641.13;5040751;28;20045;-69
2022/08/27 02:06:51;;;;;;;12.68;6.03;;;;;;;14.67;93.46;101634.31;5023948;28;20025;-69
2022/08/27 02:09:17;;;;;;;13.93;6.43;;;;;;;14.67;93.19;101633.47;5025064;28;20112;-68
2022/08/27 02:11:42;;;;;;;13.75;6.20;;;;;;;14.65;93.10;101633.72;5024338;28;20312;-68
2022/08/27 02:14:07;;;;;;;14.45;6.50;;;;;;;14.67;93.76;101625.16;5023950;28;20026;-69
2022/08/27 02:16:32;;;;;;;11.15;5.97;;;;;;;14.67;93.88;101627.94;5024030;28;20049;-70
2022/08/27 02:18:58;;;;;;;12.55;6.25;;;;;;;14.68;93.95;101635.97;5023643;28;20025;-69
2022/08/27 02:21:24;;;;;;;12.32;6.80;;;;;;;14.66;93.52;101635.38;5023159;28;20091;-68
2022/08/27 02:23:50;;;;;;;11.77;6.28;;;;;;;14.63;93.74;101622.03;5024668;28;20037;-68
2022/08/27 02:26:16;;;;;;;14.02;6.30;;;;;;;14.64;94.18;101623.72;5024306;28;20241;-69
2022/08/27 02:28:42;;;;;;;13.40;6.25;;;;;;;14.60;94.10;101628.06;5006614;28;20491;-68
2022/08/27 02:31:08;;;;;;;12.63;6.65;;;;;;;14.57;94.73;101622.16;5022755;28;20021;-68
2022/08/27 02:33:33;;;;;;;13.50;6.80;;;;;;;14.61;94.92;101623.38;5023673;28;20021;-68
2022/08/27 02:35:59;;;;;;;17.15;7.78;;;;;;;14.54;94.30;101624.28;5023779;28;20068;-68
2022/08/27 02:38:24;;;;;;;13.43;6.45;;;;;;;14.53;94.82;101628.16;5023842;28;20049;-69
2022/08/27 02:40:49;;;;;;;12.30;6.68;;;;;;;14.51;94.78;101621.19;5024799;28;20111;-68
2022/08/27 02:43:15;;;;;;;10.15;5.90;;;;;;;14.49;94.74;101621.41;5023046;28;20116;-69
2022/08/27 02:45:41;;;;;;;12.30;6.55;;;;;;;14.44;94.22;101618.47;5022993;28;20086;-69
2022/08/27 02:48:06;;;;;;;13.38;6.88;;;;;;;14.35;94.23;101617.16;5023680;28;20450;-68
2022/08/27 02:50:32;;;;;;;13.88;6.88;;;;;;;14.33;94.35;101615.69;5023363;28;20030;-69
2022/08/27 02:53:00;;;;;;;11.68;6.35;;;;;;;14.28;94.81;101624.69;5023753;28;20026;-68
2022/08/27 02:55:25;;;;;;;13.80;6.30;;;;;;;14.26;94.40;101622.19;5032113;28;20100;-69
2022/08/27 02:57:50;;;;;;;12.68;7.45;;;;;;;14.23;94.96;101622.63;5043300;28;20590;-68
2022/08/27 03:00:18;;;;;;;10.93;6.25;;;;;;;14.24;95.57;101623.47;5043011;28;20033;-68
2022/08/27 03:02:43;;;;;;;17.25;6.95;;;;;;;14.26;95.40;101618.56;5043853;28;20047;-68
2022/08/27 03:05:11;;;;;;;14.88;7.70;;;;;;;14.24;95.52;101620.72;5042953;28;20479;-70
2022/08/27 03:07:36;;;;;;;14.43;6.20;;;;;;;14.26;95.70;101624.94;5043664;28;20416;-70
2022/08/27 03:10:03;;;;;;;12.77;6.45;;;;;;;14.22;96.35;101626.50;5043074;28;20029;-68
2022/08/27 03:12:29;;;;;;;13.43;6.10;;;;;;;14.22;96.20;101623.72;5042531;28;20440;-69
2022/08/27 03:14:54;;;;;;;15.35;6.95;;;;;;;14.21;96.17;101619.28;5043054;28;20113;-69
2022/08/27 03:20:05;;;;;;;12.48;6.50;;;;;;;14.19;96.58;101623.34;5043079;28;20726;-69
2022/08/27 03:22:30;;;;;;;10.85;6.05;;;;;;;14.25;96.76;101617.75;5042836;28;20300;-68
2022/08/27 03:24:55;;;;;;;12.73;6.60;;;;;;;14.24;96.91;101617.94;5043179;28;20036;-69
2022/08/27 03:27:21;;;;;;;15.77;6.50;;;;;;;14.27;96.76;101623.84;5042561;28;20067;-69
2022/08/27 03:29:47;;;;;;;17.33;6.43;;;;;;;14.30;97.14;101627.25;5038406;28;20021;-69
2022/08/27 03:32:12;;;;;;;15.43;6.72;;;;;;;14.32;97.08;101634.19;5021975;28;20499;-69
2022/08/27 03:34:37;;;;;;;10.77;6.80;;;;;;;14.35;97.08;101619.94;5022649;28;20033;-69
2022/08/27 03:37:03;;;;;;;11.10;6.47;;;;;;;14.36;96.69;101624.38;5022999;28;20026;-68
2022/08/27 03:39:28;;;;;;;12.25;6.07;;;;;;;14.35;96.39;101630.97;5022820;28;20032;-68
2022/08/27 03:41:54;;;;;;;12.25;6.13;;;;;;;14.36;96.46;101626.28;5020964;28;20376;-68
2022/08/27 03:44:19;;;;;;;13.57;6.70;;;;;;;14.35;96.95;101630.13;5023201;28;20026;-69
2022/08/27 03:46:44;;;;;;;14.18;6.80;;;;;;;14.33;96.74;101638.66;5021836;28;20381;-71
2022/08/27 03:49:09;;;;;;;11.00;6.90;;;;;;;14.31;97.00;101634.44;5023556;28;20075;-69
2022/08/27 03:51:35;;;;;;;13.52;6.82;;;;;;;14.31;97.54;101635.28;5023185;28;20032;-69
2022/08/27 03:54:01;;;;;;;12.07;7.07;;;;;;;14.30;97.17;101633.59;5023426;28;20022;-68
2022/08/27 03:56:26;;;;;;;11.55;6.70;;;;;;;14.29;96.76;101623.63;5023666;28;20032;-69
2022/08/27 03:58:52;;;;;;;14.57;6.53;;;;;;;14.24;96.56;101624.34;5023025;28;20075;-69
2022/08/27 04:01:18;;;;;;;10.43;6.18;;;;;;;14.19;96.28;101624.22;5022986;28;20018;-69
2022/08/27 04:03:43;;;;;;;13.20;6.90;;;;;;;14.13;96.32;101632.56;5021930;28;20388;-69
2022/08/27 04:06:08;;;;;;;12.82;6.80;;;;;;;14.08;96.06;101632.44;5022250;28;20017;-69
2022/08/27 04:08:34;;;;;;;14.15;7.55;;;;;;;13.98;96.20;101633.00;5022157;28;20365;-69
2022/08/27 04:11:04;;;;;;;15.40;7.55;;;;;;;13.93;97.22;101633.69;5021721;28;20516;-68
2022/08/27 04:13:30;;;;;;;15.18;7.53;;;;;;;13.88;97.13;101625.28;5022450;28;20498;-70
2022/08/27 04:15:55;;;;;;;13.13;8.10;;;;;;;13.86;97.43;101624.69;5021219;28;20053;-70
2022/08/27 04:18:21;;;;;;;12.98;6.82;;;;;;;13.85;97.49;101627.69;5022583;28;20147;-68
2022/08/27 04:20:48;;;;;;;16.08;6.70;;;;;;;13.84;97.53;101621.31;5022018;28;20325;-69
2022/08/27 04:23:14;;;;;;;13.40;6.93;;;;;;;13.82;97.30;101622.63;5021906;28;20511;-69
2022/08/27 04:25:41;;;;;;;11.23;6.75;;;;;;;13.79;96.91;101623.94;5021808;28;20218;-69
2022/08/27 04:28:07;;;;;;;14.07;7.47;;;;;;;13.73;97.48;101611.03;5021922;28;20460;-69
2022/08/27 04:30:33;;;;;;;13.50;7.32;;;;;;;13.74;97.84;101618.28;5020758;28;20442;-70
2022/08/27 04:32:58;;;;;;;13.90;8.45;;;;;;;13.75;98.53;101619.97;5021497;28;20075;-69
2022/08/27 04:35:24;;;;;;;16.83;8.90;;;;;;;13.74;98.47;101624.63;5022150;28;20140;-69
2022/08/27 04:37:49;;;;;;;13.75;8.68;;;;;;;13.72;98.71;101634.22;5022510;28;20029;-69
2022/08/27 04:40:15;;;;;;;15.38;8.18;;;;;;;13.67;98.44;101628.53;5021559;28;20061;-69
2022/08/27 04:42:41;;;;;;;13.95;8.82;;;;;;;13.67;98.70;101634.06;5021750;28;20060;-68
2022/08/27 04:45:07;;;;;;;15.35;8.10;;;;;;;13.65;99.04;101639.00;5020144;28;20507;-69
2022/08/27 04:47:33;;;;;;;16.95;8.30;;;;;;;13.64;98.74;101635.38;5021575;28;20392;-68
2022/08/27 04:49:58;;;;;;;13.13;7.90;;;;;;;13.64;98.65;101635.38;5021149;28;20017;-68
2022/08/27 04:52:24;;;;;;;14.82;8.23;;;;;;;13.69;98.58;101642.97;5021929;28;20021;-68
2022/08/27 04:54:49;;;;;;;14.60;8.82;;;;;;;13.71;98.95;101635.28;5025713;28;20028;-69
2022/08/27 04:57:14;;;;;;;15.15;8.77;;;;;;;13.73;98.87;101635.88;5021634;28;20112;-69
2022/08/27 04:59:39;;;;;;;12.40;8.27;;;;;;;13.75;99.10;101631.00;5021707;28;20044;-68
2022/08/27 05:02:08;;;;;;;11.85;7.20;;;;;;;13.74;98.86;101638.44;5020388;28;20419;-69
2022/08/27 05:04:35;;;;;;;12.45;7.38;;;;;;;13.71;98.35;101635.28;5021054;28;20032;-69
2022/08/27 05:07:00;;;;;;;12.27;7.43;;;;;;;13.73;98.35;101638.66;5021237;28;20095;-69
2022/08/27 05:09:26;;;;;;;12.45;7.25;;;;;;;13.74;98.19;101640.38;5021745;28;20025;-68
2022/08/27 05:11:53;;;;;;;12.07;7.55;;;;;;;13.76;98.14;101641.81;5020050;28;20551;-69
2022/08/27 05:14:19;;;;;;;11.30;7.75;;;;;;;13.79;98.33;101645.16;5022066;28;20037;-69
2022/08/27 05:16:46;;;;;;;11.80;7.53;;;;;;;13.84;99.02;101646.19;5020599;28;20306;-68
2022/08/27 05:19:15;;;;;;;14.07;8.25;;;;;;;13.89;98.98;101639.91;5021035;28;20022;-69
2022/08/27 05:21:46;;;;;;;11.68;7.65;;;;;;;13.97;99.20;101645.97;5021002;28;20075;-69
2022/08/27 05:24:11;;;;;;;13.52;8.02;;;;;;;14.07;99.10;101650.09;5021222;28;20032;-69
2022/08/27 05:26:37;;;;;;;11.95;7.82;;;;;;;14.19;98.90;101648.22;5020798;28;20025;-69
2022/08/27 05:29:04;;;;;;;16.70;8.43;;;;;;;14.30;99.22;101641.91;5021735;28;20112;-69
2022/08/27 05:31:29;;;;;;;17.38;9.68;;;;;;;14.41;99.24;101645.78;5021150;28;20022;-70
2022/08/27 05:33:55;;;;;;;17.38;9.98;;;;;;;14.48;99.31;101641.84;5021778;28;20108;-69
2022/08/27 05:36:28;;;;;;;15.95;10.73;;;;;;;14.58;99.32;101648.72;5022145;28;20103;-69
2022/08/27 05:38:57;;;;;;;18.33;10.65;;;;;;;14.68;99.58;101652.56;5022186;28;20033;-69
2022/08/27 05:41:28;;;;;;;19.67;10.50;;;;;;;14.79;99.77;101642.59;5021424;28;20018;-71
2022/08/27 05:43:56;;;;;;;19.58;10.57;;;;;;;14.86;98.68;101654.41;5021652;28;20068;-69
2022/08/27 05:46:23;;;;;;;22.23;11.43;;;;;;;14.94;99.13;101645.72;5020710;28;20511;-68
2022/08/27 05:48:50;;;;;;;16.67;11.77;;;;;;;15.02;99.18;101647.31;5020693;28;20120;-68
2022/08/27 05:51:19;;;;;;;19.30;11.32;;;;;;;15.02;98.59;101653.69;5021387;28;20014;-69
2022/08/27 05:53:44;;;;;;;17.63;11.32;;;;;;;15.14;98.56;101647.28;5020652;28;20095;-69
2022/08/27 05:56:12;;;;;;;16.45;11.65;;;;;;;15.19;98.93;101653.78;5022415;28;20041;-69
2022/08/27 06:01:22;;;;;;;18.77;11.57;;;;;;;15.38;98.36;101656.44;5023746;28;20123;-68
2022/08/27 06:03:48;;;;;;;18.90;11.45;;;;;;;15.45;97.85;101663.50;5024733;28;20077;-68
2022/08/27 06:06:13;;;;;;;20.38;11.18;;;;;;;15.55;97.79;101660.94;5024166;28;20029;-69
2022/08/27 06:08:39;;;;;;;19.95;11.85;;;;;;;15.61;97.18;101653.59;5024418;28;20163;-70
2022/08/27 06:11:06;;;;;;;18.20;11.02;;;;;;;15.68;96.99;101654.34;5023958;28;20148;-71
2022/08/27 06:13:33;;;;;;;24.55;11.50;;;;;;;15.75;96.52;101662.50;5024908;28;20025;-70
2022/08/27 06:16:09;;;;;;;19.45;11.93;;;;;;;15.80;96.62;101666.22;5022707;28;20017;-70
2022/08/27 06:18:37;;;;;;;23.42;11.73;;;;;;;15.85;96.03;101662.72;5024183;28;20496;-71
2022/08/27 06:21:03;;;;;;;21.92;11.82;;;;;;;15.95;96.68;101662.09;5042898;28;20068;-70
2022/08/27 06:23:28;;;;;;;22.92;12.02;;;;;;;16.01;96.44;101664.69;5044387;28;20540;-70
2022/08/27 06:25:55;;;;;;;23.88;12.60;;;;;;;16.04;95.81;101655.91;5045009;28;20141;-70
2022/08/27 06:28:22;;;;;;;26.23;13.07;;;;;;;16.08;95.48;101668.19;5044994;28;20365;-70
2022/08/27 06:30:48;;;;;;;24.38;11.85;;;;;;;16.12;94.95;101660.22;5044136;28;20527;-71
2022/08/27 06:33:14;;;;;;;24.35;13.20;;;;;;;16.20;95.23;101658.97;5044905;28;20111;-70
2022/08/27 06:35:39;;;;;;;31.65;13.20;;;;;;;16.23;95.09;101655.72;5045049;28;20098;-70
2022/08/27 06:38:04;;;;;;;22.95;11.90;;;;;;;16.27;94.30;101659.63;5031778;28;20025;-70
2022/08/27 06:40:29;;;;;;;26.25;12.45;;;;;;;16.30;nan;101660.00;5024307;28;20111;-70
2022/08/27 06:42:55;;;;;;;24.95;12.55;;;;;;;16.37;93.60;101662.59;5024848;28;20464;-70
2022/08/27 06:45:20;;;;;;;25.83;12.82;;;;;;;16.42;93.48;101662.69;5024208;28;20037;-68
2022/08/27 06:47:46;;;;;;;22.77;11.90;;;;;;;16.44;92.46;101659.69;5024864;28;20036;-70
2022/08/27 06:50:11;;;;;;;22.15;11.70;;;;;;;16.43;90.62;101658.84;5006980;28;20021;-70
2022/08/27 06:52:37;;;;;;;34.30;11.98;;;;;;;16.48;91.46;101670.03;5024592;28;20869;-70
2022/08/27 06:55:03;;;;;;;23.40;11.23;;;;;;;16.51;90.21;101663.97;5023806;28;20076;-70
2022/08/27 06:57:28;;;;;;;20.55;11.35;;;;;;;16.56;90.94;101666.81;5023781;28;20079;-70
2022/08/27 06:59:53;;;;;;;24.42;12.05;;;;;;;16.68;91.16;101661.22;5022610;28;20099;-70
2022/08/27 07:02:19;;;;;;;25.70;12.70;;;;;;;16.73;90.53;101658.56;5024141;28;20472;-70
2022/08/27 07:04:44;;;;;;;23.38;10.80;;;;;;;16.82;90.74;101658.97;5022976;28;20025;-70
2022/08/27 07:07:11;;;;;;;21.20;11.43;;;;;;;16.87;89.94;101659.06;5022765;28;20026;-70
2022/08/27 07:09:37;;;;;;;25.15;12.70;;;;;;;16.97;90.15;101656.44;5023491;28;20040;-69
2022/08/27 07:12:03;;;;;;;24.08;11.70;;;;;;;17.04;88.46;101654.34;5022309;28;20516;-70
2022/08/27 07:14:29;;;;;;;22.15;11.63;;;;;;;17.12;87.47;101664.16;5022581;28;20029;-69
2022/08/27 07:16:54;;;;;;;25.42;11.65;;;;;;;17.21;86.32;101667.34;5022822;28;20048;-70
2022/08/27 07:19:20;;;;;;;23.48;11.68;;;;;;;17.24;84.94;101664.06;5023447;28;20053;-70
2022/08/27 07:21:45;;;;;;;23.38;11.77;;;;;;;17.40;86.42;101671.53;5023211;28;20044;-69
2022/08/27 07:24:11;;;;;;;25.95;11.88;;;;;;;17.49;85.36;101670.00;5023280;28;20025;-69
2022/08/27 07:26:40;;;;;;;23.50;12.07;;;;;;;17.61;85.97;101673.47;5022632;28;20033;-70
2022/08/27 07:29:07;;;;;;;22.90;12.68;;;;;;;17.72;85.54;101677.22;5023024;28;20383;-69
2022/08/27 07:31:37;;;;;;;25.00;13.70;;;;;;;17.78;83.72;101665.09;5022345;28;20033;-70
2022/08/27 07:34:04;;;;;;;23.92;12.32;;;;;;;17.92;82.84;101675.84;5022409;28;20068;-69
2022/08/27 07:36:30;;;;;;;23.75;12.82;;;;;;;17.96;79.96;101683.41;5022518;28;20021;-70
2022/08/27 07:38:55;;;;;;;21.40;12.43;;;;;;;18.10;81.24;101676.34;5022500;28;20025;-70
2022/08/27 07:41:20;;;;;;;29.67;13.05;;;;;;;18.21;82.19;101680.06;5022197;28;20047;-70
2022/08/27 07:46:30;;;;;;;29.73;13.20;;;;;;;18.41;79.76;101673.88;5022304;28;20041;-69
2022/08/27 07:48:56;;;;;;;25.08;11.45;;;;;;;18.46;78.42;101673.94;5021886;28;20265;-69
2022/08/27 07:51:23;;;;;;;27.55;11.38;;;;;;;18.57;77.77;101680.44;5022822;28;20033;-70
2022/08/27 07:53:51;;;;;;;23.27;11.30;;;;;;;18.55;77.25;101675.13;5022495;28;20029;-70
2022/08/27 07:56:17;;;;;;;28.77;12.57;;;;;;;18.60;78.14;101677.97;5022766;28;20039;-70
2022/08/27 07:58:43;;;;;;;25.77;11.57;;;;;;;18.54;75.68;101679.00;5022319;28;20299;-69
2022/08/27 08:01:08;;;;;;;21.92;10.75;;;;;;;18.49;76.59;101681.72;5021819;28;20154;-69
2022/08/27 08:03:34;;;;;;;19.63;10.32;;;;;;;18.48;77.32;101682.84;5021837;28;20508;-69
2022/08/27 08:06:08;;;;;;;17.15;7.30;;;;;;;18.48;75.64;101685.63;5021823;28;20381;-70
2022/08/27 08:08:35;;;;;;;16.98;5.43;;;;;;;18.50;71.79;101680.66;5022128;28;20095;-69
2022/08/27 08:11:02;;;;;;;12.85;4.70;;;;;;;18.56;68.73;101682.38;5021786;28;20025;-69
2022/08/27 08:13:28;;;;;;;14.18;4.55;;;;;;;18.70;68.35;101681.94;5022394;28;20030;-69
2022/08/27 08:15:56;;;;;;;13.98;4.60;;;;;;;18.65;69.68;101677.16;5021703;28;20084;-70
2022/08/27 08:18:21;;;;;;;14.63;5.18;;;;;;;18.74;69.08;101671.97;5021129;28;20909;-69
2022/08/27 08:20:46;;;;;;;14.65;4.35;;;;;;;18.84;68.36;101685.97;5025908;28;20089;-69
2022/08/27 08:23:11;;;;;;;13.30;4.90;;;;;;;19.07;68.48;101685.63;5021644;28;20025;-69
2022/08/27 08:25:37;;;;;;;12.13;4.22;;;;;;;19.23;67.42;101680.97;5021432;28;20068;-71
2022/08/27 08:28:02;;;;;;;8.05;3.83;;;;;;;19.30;66.74;101678.78;5022164;28;20377;-71
2022/08/27 08:30:28;;;;;;;13.48;3.95;;;;;;;19.40;65.37;101678.00;5021320;28;20473;-70
2022/08/27 08:32:53;;;;;;;12.25;3.65;;;;;;;19.37;65.36;101684.16;5021778;28;20032;-69
2022/08/27 08:35:19;;;;;;;9.07;3.60;;;;;;;19.44;63.31;101682.78;5021907;28;20029;-68
2022/08/27 08:37:45;;;;;;;9.00;3.38;;;;;;;19.55;64.11;101682.84;5021520;28;20029;-69
2022/08/27 08:40:28;;;;;;;10.85;4.25;;;;;;;19.90;63.27;101687.78;5021618;28;20022;-70
2022/08/27 08:42:55;;;;;;;11.10;3.92;;;;;;;20.02;63.25;101676.38;5021471;28;20419;-69
2022/08/27 08:45:26;;;;;;;13.17;3.87;;;;;;;20.36;63.07;101682.31;5021231;28;20029;-68
2022/08/27 08:48:03;;;;;;;10.55;3.80;;;;;;;20.50;62.32;101683.50;5020964;28;20516;-69
2022/08/27 08:50:41;;;;;;;9.80;3.20;;;;;;;20.56;62.28;101687.13;5021823;28;20029;-69
2022/08/27 08:53:21;;;;;;;10.88;3.97;;;;;;;20.52;63.03;101683.22;5021056;28;20391;-69
2022/08/27 08:55:48;;;;;;;11.07;3.47;;;;;;;20.70;60.57;101680.72;5038196;28;20021;-69
2022/08/27 08:58:54;;;;;;;10.27;3.30;;;;;;;20.86;61.53;101687.16;5041042;28;20036;-69
2022/08/27 09:01:20;;;;;;;10.73;3.53;;;;;;;21.03;60.24;101686.03;5040800;28;20021;-69
2022/08/27 09:03:52;;;;;;;11.48;3.47;;;;;;;21.16;60.24;101685.47;5041022;28;20028;-69
2022/08/27 09:06:35;;;;;;;9.73;2.92;;;;;;;21.22;58.68;101690.75;5041496;28;20021;-69
2022/08/27 09:09:12;;;;;;;8.35;2.60;;;;;;;21.43;58.90;101691.56;5041047;28;20111;-69
2022/08/27 09:11:54;;;;;;;10.15;2.83;;;;;;;21.56;57.08;101684.56;5036347;28;20073;-70
2022/08/27 09:14:42;;;;;;;10.18;2.80;;;;;;;21.59;57.69;101686.78;5020272;28;20524;-69
2022/08/27 09:17:08;;;;;;;8.65;2.70;;;;;;;21.63;56.18;101701.03;4984039;28;20388;-69
2022/08/27 09:19:33;;;;;;;9.50;3.05;;;;;;;21.65;56.47;101696.84;5020383;28;20013;-69
2022/08/27 09:22:40;;;;;;;7.63;2.95;;;;;;;21.72;57.63;101693.75;5021351;28;20460;-69
2022/08/27 09:25:24;;;;;;;9.35;2.97;;;;;;;21.59;58.07;101695.16;4992039;28;20049;-69
2022/08/27 09:27:53;;;;;;;7.25;2.67;;;;;;;21.44;57.06;101698.88;5021082;28;20052;-68
2022/08/27 09:30:24;;;;;;;10.73;3.03;;;;;;;23.69;52.29;101698.22;5033461;28;20213;-69
2022/08/27 09:33:02;;;;;;;8.48;2.40;;;;;;;26.53;45.46;101701.19;5045401;28;20174;-70
2022/08/27 09:35:37;;;;;;;8.85;2.33;;;;;;;28.46;42.31;101697.84;5045244;28;20024;-70
2022/08/27 09:38:03;;;;;;;6.78;2.00;;;;;;;29.93;36.02;101703.22;5044194;28;20021;-70
2022/08/27 09:40:32;;;;;;;7.72;2.50;;;;;;;30.59;34.11;101690.44;5044670;28;20033;-69
2022/08/27 09:43:06;;;;;;;7.90;2.20;;;;;;;31.30;35.79;101690.28;5044841;28;20025;-69
2022/08/27 09:45:32;;;;;;;7.97;1.90;;;;;;;32.11;32.08;101685.72;5043802;28;20025;-68
2022/08/27 09:48:08;;;;;;;7.97;2.83;;;;;;;31.79;32.16;101684.66;5036747;28;20357;-68
2022/08/27 09:50:54;;;;;;;6.05;2.28;;;;;;;29.68;37.24;101685.19;5025197;28;20022;-68
2022/08/27 09:53:24;;;;;;;9.52;2.58;;;;;;;27.27;39.07;101686.63;5024282;28;20154;-69
2022/08/27 09:55:56;;;;;;;5.32;1.90;;;;;;;25.93;41.61;101692.91;5025146;28;20116;-69
2022/08/27 09:58:23;;;;;;;7.97;1.70;;;;;;;27.16;38.99;101689.72;5024397;28;20625;-69
2022/08/27 10:01:02;;;;;;;5.72;2.00;;;;;;;28.86;37.17;101681.56;5006040;28;20030;-69
2022/08/27 10:03:27;;;;;;;8.95;2.22;;;;;;;30.51;33.51;101683.66;5024562;28;20033;-68
2022/08/27 10:05:53;;;;;;;7.13;1.65;;;;;;;29.52;34.90;101689.72;5036158;28;20044;-69
2022/08/27 10:08:47;;;;;;;3.45;1.48;;;;;;;27.85;38.87;101692.06;5044618;28;20569;-68
2022/08/27 10:11:33;;;;;;;5.93;1.88;;;;;;;26.51;41.94;101695.00;5043024;28;20247;-68
2022/08/27 10:14:11;;;;;;;7.03;1.83;;;;;;;25.74;42.07;101691.00;5043881;28;20083;-69
2022/08/27 10:17:02;;;;;;;5.75;1.60;;;;;;;25.60;44.05;101693.00;5044280;28;20025;-68
2022/08/27 10:19:54;;;;;;;6.03;1.85;;;;;;;25.33;44.27;101691.00;5044226;28;20025;-70
2022/08/27 10:22:34;;;;;;;4.18;1.60;;;;;;;24.77;44.87;101687.16;5030472;28;20095;-69
2022/08/27 10:25:18;;;;;;;4.88;2.00;;;;;;;24.88;44.53;101685.00;5023621;28;20120;-69
2022/08/27 10:27:56;;;;;;;6.32;1.58;;;;;;;26.27;43.04;101687.66;5024304;28;20099;-69
2022/08/27 10:30:37;;;;;;;6.03;1.80;;;;;;;26.32;41.12;101679.09;5023654;28;20360;-70
2022/08/27 10:33:16;;;;;;;6.93;1.77;;;;;;;27.24;40.96;101685.31;5024058;28;20021;-66
2022/08/27 10:35:48;;;;;;;5.38;1.70;;;;;;;28.40;38.34;101674.59;5024384;28;20365;-67
2022/08/27 10:38:21;;;;;;;5.15;1.60;;;;;;;27.49;39.86;101680.13;5024015;28;20026;-67
2022/08/27 10:40:57;;;;;;;6.07;1.95;;;;;;;26.12;41.88;101679.56;5036513;28;20037;-67
2022/08/27 10:43:37;;;;;;;6.38;1.75;;;;;;;25.06;42.89;101683.31;5042955;28;20481;-67
2022/08/27 10:46:24;;;;;;;7.93;2.20;;;;;;;24.39;44.82;101680.75;5042711;28;20033;-67
2022/08/27 10:49:09;;;;;;;5.97;1.50;;;;;;;24.06;46.69;101679.78;5044317;28;20036;-68
2022/08/27 10:52:05;;;;;;;5.28;1.60;;;;;;;23.87;47.32;101681.72;5043416;28;20021;-67
2022/08/27 10:54:49;;;;;;;5.93;1.80;;;;;;;23.74;47.83;101674.88;5043118;28;20056;-67
2022/08/27 10:57:31;;;;;;;7.22;1.92;;;;;;;23.53;47.97;101677.88;5031197;28;20392;-68
2022/08/27 11:00:17;;;;;;;7.50;2.25;;;;;;;23.52;48.90;101681.00;5022803;28;20026;-68
2022/08/27 11:02:53;;;;;;;4.57;1.73;;;;;;;23.11;49.32;101684.19;5023367;28;20163;-68
2022/08/27 11:05:33;;;;;;;4.00;1.67;;;;;;;23.01;50.42;101681.50;5024195;28;20388;-68
2022/08/27 11:08:09;;;;;;;6.20;1.88;;;;;;;22.91;50.57;101674.03;5022988;28;20056;-68
2022/08/27 11:10:48;;;;;;;6.47;1.65;;;;;;;22.82;50.68;101677.72;5023686;28;20032;-68
2022/08/27 11:13:31;;;;;;;4.72;1.50;;;;;;;22.80;51.55;101676.03;5026593;28;20037;-68
2022/08/27 11:16:00;;;;;;;7.72;2.00;;;;;;;22.54;50.58;101678.22;5042230;28;20028;-68
2022/08/27 11:18:41;;;;;;;6.93;1.92;;;;;;;22.57;51.21;101676.81;5043122;28;20036;-68
2022/08/27 11:21:20;;;;;;;5.80;1.80;;;;;;;22.62;49.78;101675.94;5042702;28;20025;-68
2022/08/27 11:23:56;;;;;;;6.40;1.73;;;;;;;22.60;51.21;101673.41;5043187;28;20099;-68
2022/08/27 11:26:21;;;;;;;4.43;1.38;;;;;;;22.59;50.56;101671.75;5043542;28;20408;-68
2022/08/27 11:28:51;;;;;;;6.10;1.50;;;;;;;22.69;50.81;101671.66;5042449;28;20127;-68
2022/08/27 11:31:25;;;;;;;5.13;1.75;;;;;;;22.76;49.99;101672.19;5025957;28;20112;-69
2022/08/27 11:33:58;;;;;;;3.85;1.40;;;;;;;22.88;49.80;101662.56;5022968;28;20046;-68
2022/08/27 11:36:53;;;;;;;4.22;1.48;;;;;;;23.19;49.39;101665.91;5022679;28;20511;-68